Rixford, Vermont
Current Conditions -  °F | °C
As of 2:15 AM on Thursday 18 Dec 2014 (Local Time) from KFSO Reporting Station
Light Snow Light Snow  
Wind Chill: 28°   Ceiling: 1200
Heat Index: 32°   Visibility: 3mi
Dew Point: 32°   Wind: 5mph
Humidity: 98%   Direction: 280°W
Pressure: 29.77"   Gusts: NA
Location:  44.958°N, 72.9958°W
Report Text: KFSO 180715Z AUTO 28004KT 3SM -SN SCT006 OVC012 00/00 A2977 RMK AO2 T00021001
Loading
Personal Weather Stations






























Interactive Weather Map New forecast layout! Learn more

10-Day Weather Forecast

Advertisements
Track Severe Weather on mobile